Flight Track Log - Related Links

Times and Time Zones

All times are in EDT time to prevent confusion due to time zone crossing. See the N612FT flight status page for this flight to view local times or setup timezone preferences in your user account.

Time Position Orientation Groundspeed Altitude Reporting Facility
EDT Latitude Longitude Course Direction KTS MPH feet Rate Location/Type
Fri 10:40:14 PM 27.5753 -80.5350 322° Northwest 103 119 3,000  Level Miami Center
Fri 10:45:15 PM 27.6997 -80.6444 324° Northwest 107 123 3,100  Climbing Miami Center
Fri 10:46:15 PM 27.7242 -80.6642 334° Northwest 107 123 3,000 -50 Descending Miami Center
Fri 10:47:16 PM 27.7511 -80.6792 330° Northwest 107 123 3,000  Level Miami Center
Fri 10:48:16 PM 27.7736 -80.6939 340° North 107 123 3,000 50 Level Miami Center
Fri 10:49:15 PM 27.8044 -80.7067 350° North 107 123 3,100  Climbing Miami Center
Fri 10:50:14 PM 27.8336 -80.7125 351° North 102 117 3,000  Descending Miami Center
Fri 10:51:14 PM 27.8647 -80.7181 North 102 117 3,100  Climbing Miami Center
Fri 10:52:41 PM 27.9167 -80.7167 336° Northwest 115 132 3,000 -41 Descending Orlando TRACON
Fri 10:53:41 PM 27.9500 -80.7333 319° Northwest 115 132 3,000  Level Orlando TRACON
Fri 10:54:41 PM 27.9667 -80.7500 300° West 121 139 3,000  Level Orlando TRACON
Fri 10:55:41 PM 27.9833 -80.7833 300° West 116 133 3,000 -50 Level Orlando TRACON
Fri 10:56:41 PM 28.0000 -80.8167 270° West 120 138 2,900  Descending Orlando TRACON
Fri 10:57:42 PM 28.0000 -80.8500 336° Northwest 117 135 3,000 50 Climbing Orlando TRACON
Fri 10:58:41 PM 28.0333 -80.8667 360° North 115 132 3,000  Level Orlando TRACON
Fri 10:59:41 PM 28.0667 -80.8667 360° North 117 135 3,000 -450 Level Orlando TRACON
Fri 11:00:41 PM 28.1000 -80.8667 90° East 119 137 2,100 -595 Descending Orlando TRACON
Fri 11:01:42 PM 28.1000 -80.8333 90° East 93 107 1,800 -250 Descending Orlando TRACON
Fri 11:02:41 PM 28.1000 -80.8000 90° East 90 104 1,600 -50 Descending Orlando TRACON
Fri 11:03:41 PM 28.1000 -80.7833 90° East 88 101 1,700 -99 Climbing Orlando TRACON
Fri 11:04:42 PM 28.1000 -80.7500 90° East 89 102 1,400 -397 Descending Orlando TRACON
Fri 11:05:42 PM 28.1000 -80.7167 90° East 83 96 900 -300 Descending Orlando TRACON
Fri 11:06:42 PM 28.1000 -80.7000 120° Southeast 95 109 800 -100 Descending Orlando TRACON
Fri 11:07:42 PM 28.0833 -80.6667 120° Southeast 100 115 700 -100 Descending Orlando TRACON

Login

Don't have an account? Register now (free) for customized features, flight alerts, and more!